Mission Field
KLVM : now visible

Airfield :











YOU CAN JOIN US ON...

 
LOGIN :

Register | Disclaimer

   EN    FR    IT 

 









Legend :    VFR   Marginal VFR   IFR   Intensive IFR   Very Intensive IFR
Visi :
Ceiling :
>= 8 km
>= 3000ft
5 to 8 km
1000 to 3000 ft
1500m to 5 km
500 to 1000 ft
800 to 1500m
200 to 500 ft
< 800m
< 200 ft
Symbols :   Thunderstorms  Fog  Heavy snow  Heavy precipitations  Wind > 20 kt






- Airport Elevation : 4660 ft


KLVM - Mission Field

CURRENT METAR :
  • 190653Z AUTO 26007KT 10SM CLR M04/M07 A3039 RMK AO2 SLP330 T10441072 400171044

EXPIRED METARs :
  • 190553Z AUTO 25007KT 10SM FEW025 BKN090 M03/M07 A3037 RMK AO2 SLP325 T10331067 10006 21033 53013

TAF KLVM
Valid from the 19 at 06:00 until the 20 at 06:00 UTC


190520Z 1906/2006 28006KT P6SM VCSH OVC100
FM190900 25021G30KT P6SM SCT090
FM191600 25028G38KT P6SM FEW200
FM192200 23034G44KT P6SM SCT200
FM200300 23044G54KT P6SM SCT200
KZLC FIR / North America



MET'MAP, your aeronautical weather chart ! - Copyright ORBIFLY December 2007 - Disclaimer

ORBIFLY MET'MAP TEAM :

Programming & Development : Alexandra Zaïnal
Concept & original design : Baudouin d'Aumeries
Assistance for programming : Marc-Olivier Méhu
Technical & hardware support : Manuel Goepfert

Contact : metmap@orbifly.com




SOURCES & CREDITS :

   NOAA       Earth
Advisory